sensor_id;sensor_type;location;lat;lon;timestamp;P1;durP1;ratioP1;P2;durP2;ratioP2
11731;SDS011;5922;53.734;10.258;2023-09-12T00:00:47;15.40;;;12.20;;
11731;SDS011;5922;53.734;10.258;2023-09-12T00:03:14;18.57;;;12.63;;
11731;SDS011;5922;53.734;10.258;2023-09-12T00:05:41;14.40;;;12.90;;
11731;SDS011;5922;53.734;10.258;2023-09-12T00:08:11;17.63;;;13.10;;
11731;SDS011;5922;53.734;10.258;2023-09-12T00:10:40;19.20;;;13.10;;
11731;SDS011;5922;53.734;10.258;2023-09-12T00:13:07;14.90;;;12.13;;
11731;SDS011;5922;53.734;10.258;2023-09-12T00:15:34;16.20;;;12.33;;
11731;SDS011;5922;53.734;10.258;2023-09-12T00:18:01;16.63;;;12.83;;
11731;SDS011;5922;53.734;10.258;2023-09-12T00:20:29;16.93;;;14.00;;
11731;SDS011;5922;53.734;10.258;2023-09-12T00:22:56;15.33;;;13.03;;
11731;SDS011;5922;53.734;10.258;2023-09-12T00:25:24;14.67;;;13.30;;
11731;SDS011;5922;53.734;10.258;2023-09-12T00:27:53;15.10;;;13.50;;
11731;SDS011;5922;53.734;10.258;2023-09-12T00:30:20;17.20;;;13.93;;
11731;SDS011;5922;53.734;10.258;2023-09-12T00:32:47;21.23;;;15.50;;
11731;SDS011;5922;53.734;10.258;2023-09-12T00:35:15;20.40;;;15.97;;
11731;SDS011;5922;53.734;10.258;2023-09-12T00:37:42;19.23;;;16.37;;
11731;SDS011;5922;53.734;10.258;2023-09-12T00:40:09;20.97;;;17.50;;
11731;SDS011;5922;53.734;10.258;2023-09-12T00:42:37;22.23;;;18.37;;
11731;SDS011;5922;53.734;10.258;2023-09-12T00:45:06;26.53;;;19.73;;
11731;SDS011;5922;53.734;10.258;2023-09-12T00:47:33;23.17;;;19.17;;
11731;SDS011;5922;53.734;10.258;2023-09-12T00:50:01;25.93;;;20.90;;
11731;SDS011;5922;53.734;10.258;2023-09-12T00:52:29;24.30;;;21.07;;
11731;SDS011;5922;53.734;10.258;2023-09-12T00:54:57;27.40;;;21.33;;
11731;SDS011;5922;53.734;10.258;2023-09-12T00:57:25;26.03;;;22.23;;
11731;SDS011;5922;53.734;10.258;2023-09-12T00:59:52;26.20;;;21.87;;
11731;SDS011;5922;53.734;10.258;2023-09-12T01:02:22;27.33;;;22.47;;
11731;SDS011;5922;53.734;10.258;2023-09-12T01:04:51;29.77;;;22.43;;
11731;SDS011;5922;53.734;10.258;2023-09-12T01:07:19;28.90;;;22.73;;
11731;SDS011;5922;53.734;10.258;2023-09-12T01:09:49;26.67;;;22.47;;
11731;SDS011;5922;53.734;10.258;2023-09-12T01:12:18;28.83;;;22.40;;
11731;SDS011;5922;53.734;10.258;2023-09-12T01:14:46;31.27;;;23.03;;
11731;SDS011;5922;53.734;10.258;2023-09-12T01:17:13;29.77;;;23.77;;
11731;SDS011;5922;53.734;10.258;2023-09-12T01:19:41;28.87;;;23.97;;
11731;SDS011;5922;53.734;10.258;2023-09-12T01:22:14;28.07;;;23.20;;
11731;SDS011;5922;53.734;10.258;2023-09-12T01:24:47;29.33;;;22.43;;
11731;SDS011;5922;53.734;10.258;2023-09-12T01:27:21;26.77;;;23.17;;
11731;SDS011;5922;53.734;10.258;2023-09-12T01:29:49;26.33;;;22.47;;
11731;SDS011;5922;53.734;10.258;2023-09-12T01:32:19;28.10;;;21.63;;
11731;SDS011;5922;53.734;10.258;2023-09-12T01:34:47;28.70;;;22.70;;
11731;SDS011;5922;53.734;10.258;2023-09-12T01:37:14;28.50;;;22.60;;
11731;SDS011;5922;53.734;10.258;2023-09-12T01:39:43;24.33;;;21.57;;
11731;SDS011;5922;53.734;10.258;2023-09-12T01:42:11;26.83;;;23.30;;
11731;SDS011;5922;53.734;10.258;2023-09-12T01:44:49;29.17;;;22.57;;
11731;SDS011;5922;53.734;10.258;2023-09-12T01:47:17;28.17;;;23.13;;
11731;SDS011;5922;53.734;10.258;2023-09-12T01:49:49;26.40;;;22.97;;
11731;SDS011;5922;53.734;10.258;2023-09-12T01:52:16;28.37;;;23.57;;
11731;SDS011;5922;53.734;10.258;2023-09-12T01:54:44;30.60;;;23.20;;
11731;SDS011;5922;53.734;10.258;2023-09-12T01:57:14;28.73;;;23.83;;
11731;SDS011;5922;53.734;10.258;2023-09-12T01:59:41;33.87;;;24.07;;
11731;SDS011;5922;53.734;10.258;2023-09-12T02:02:15;29.57;;;23.67;;
11731;SDS011;5922;53.734;10.258;2023-09-12T02:04:43;30.43;;;22.73;;
11731;SDS011;5922;53.734;10.258;2023-09-12T02:07:17;33.83;;;22.93;;
11731;SDS011;5922;53.734;10.258;2023-09-12T02:09:44;26.77;;;23.70;;
11731;SDS011;5922;53.734;10.258;2023-09-12T02:12:11;33.50;;;25.33;;
11731;SDS011;5922;53.734;10.258;2023-09-12T02:14:41;31.83;;;24.57;;
11731;SDS011;5922;53.734;10.258;2023-09-12T02:17:08;31.43;;;23.53;;
11731;SDS011;5922;53.734;10.258;2023-09-12T02:19:42;26.47;;;22.27;;
11731;SDS011;5922;53.734;10.258;2023-09-12T02:22:09;28.07;;;24.17;;
11731;SDS011;5922;53.734;10.258;2023-09-12T02:24:36;29.03;;;22.93;;
11731;SDS011;5922;53.734;10.258;2023-09-12T02:27:04;30.50;;;23.57;;
11731;SDS011;5922;53.734;10.258;2023-09-12T02:29:31;34.93;;;25.27;;
11731;SDS011;5922;53.734;10.258;2023-09-12T02:32:03;34.10;;;26.60;;
11731;SDS011;5922;53.734;10.258;2023-09-12T02:34:38;32.53;;;26.47;;
11731;SDS011;5922;53.734;10.258;2023-09-12T02:37:07;33.87;;;27.30;;
11731;SDS011;5922;53.734;10.258;2023-09-12T02:39:34;30.10;;;25.97;;
11731;SDS011;5922;53.734;10.258;2023-09-12T02:42:01;31.20;;;27.17;;
11731;SDS011;5922;53.734;10.258;2023-09-12T02:44:31;34.83;;;27.47;;
11731;SDS011;5922;53.734;10.258;2023-09-12T02:46:58;32.57;;;27.37;;
11731;SDS011;5922;53.734;10.258;2023-09-12T02:49:25;33.83;;;26.43;;
11731;SDS011;5922;53.734;10.258;2023-09-12T02:51:53;33.27;;;27.20;;
11731;SDS011;5922;53.734;10.258;2023-09-12T02:54:21;30.10;;;25.53;;
11731;SDS011;5922;53.734;10.258;2023-09-12T02:56:50;32.80;;;26.97;;
11731;SDS011;5922;53.734;10.258;2023-09-12T02:59:20;34.30;;;27.60;;
11731;SDS011;5922;53.734;10.258;2023-09-12T03:01:47;34.53;;;27.80;;
11731;SDS011;5922;53.734;10.258;2023-09-12T03:04:15;38.07;;;28.57;;
11731;SDS011;5922;53.734;10.258;2023-09-12T03:06:42;34.20;;;28.63;;
11731;SDS011;5922;53.734;10.258;2023-09-12T03:09:10;35.63;;;27.80;;
11731;SDS011;5922;53.734;10.258;2023-09-12T03:11:45;34.10;;;28.07;;
11731;SDS011;5922;53.734;10.258;2023-09-12T03:14:12;32.30;;;27.17;;
11731;SDS011;5922;53.734;10.258;2023-09-12T03:16:39;32.37;;;27.63;;
11731;SDS011;5922;53.734;10.258;2023-09-12T03:19:09;33.07;;;27.23;;
11731;SDS011;5922;53.734;10.258;2023-09-12T03:21:39;33.93;;;27.80;;
11731;SDS011;5922;53.734;10.258;2023-09-12T03:24:07;34.93;;;27.83;;
11731;SDS011;5922;53.734;10.258;2023-09-12T03:26:35;34.10;;;28.80;;
11731;SDS011;5922;53.734;10.258;2023-09-12T03:29:06;36.77;;;27.90;;
11731;SDS011;5922;53.734;10.258;2023-09-12T03:31:34;33.03;;;27.47;;
11731;SDS011;5922;53.734;10.258;2023-09-12T03:34:02;34.20;;;26.23;;
11731;SDS011;5922;53.734;10.258;2023-09-12T03:36:34;35.73;;;27.10;;
11731;SDS011;5922;53.734;10.258;2023-09-12T03:39:01;38.20;;;25.93;;
11731;SDS011;5922;53.734;10.258;2023-09-12T03:41:30;35.60;;;27.03;;
11731;SDS011;5922;53.734;10.258;2023-09-12T03:43:59;29.57;;;25.87;;
11731;SDS011;5922;53.734;10.258;2023-09-12T03:46:28;35.70;;;25.97;;
11731;SDS011;5922;53.734;10.258;2023-09-12T03:48:56;31.00;;;25.77;;
11731;SDS011;5922;53.734;10.258;2023-09-12T03:51:33;30.13;;;24.57;;
11731;SDS011;5922;53.734;10.258;2023-09-12T03:54:05;32.03;;;24.93;;
11731;SDS011;5922;53.734;10.258;2023-09-12T03:56:34;29.93;;;26.43;;
11731;SDS011;5922;53.734;10.258;2023-09-12T03:59:01;31.53;;;24.77;;
11731;SDS011;5922;53.734;10.258;2023-09-12T04:01:30;30.63;;;24.93;;
11731;SDS011;5922;53.734;10.258;2023-09-12T04:03:59;32.27;;;25.73;;
11731;SDS011;5922;53.734;10.258;2023-09-12T04:06:32;32.40;;;24.53;;
11731;SDS011;5922;53.734;10.258;2023-09-12T04:08:59;31.30;;;25.80;;
11731;SDS011;5922;53.734;10.258;2023-09-12T04:11:29;31.23;;;24.83;;
11731;SDS011;5922;53.734;10.258;2023-09-12T04:13:59;27.47;;;24.17;;
11731;SDS011;5922;53.734;10.258;2023-09-12T04:16:26;33.07;;;25.13;;
11731;SDS011;5922;53.734;10.258;2023-09-12T04:18:57;29.23;;;25.03;;
11731;SDS011;5922;53.734;10.258;2023-09-12T04:21:28;30.90;;;24.30;;
11731;SDS011;5922;53.734;10.258;2023-09-12T04:23:57;31.43;;;24.23;;
11731;SDS011;5922;53.734;10.258;2023-09-12T04:26:25;31.70;;;24.03;;
11731;SDS011;5922;53.734;10.258;2023-09-12T04:28:52;31.27;;;25.13;;
11731;SDS011;5922;53.734;10.258;2023-09-12T04:31:21;27.80;;;23.43;;
11731;SDS011;5922;53.734;10.258;2023-09-12T04:33:50;29.57;;;24.93;;
11731;SDS011;5922;53.734;10.258;2023-09-12T04:36:19;28.67;;;24.47;;
11731;SDS011;5922;53.734;10.258;2023-09-12T04:38:48;28.73;;;25.17;;
11731;SDS011;5922;53.734;10.258;2023-09-12T04:41:20;32.17;;;24.63;;
11731;SDS011;5922;53.734;10.258;2023-09-12T04:43:48;31.77;;;24.13;;
11731;SDS011;5922;53.734;10.258;2023-09-12T04:46:15;32.90;;;25.83;;
11731;SDS011;5922;53.734;10.258;2023-09-12T04:48:48;29.53;;;24.50;;
11731;SDS011;5922;53.734;10.258;2023-09-12T04:51:21;31.13;;;24.17;;
11731;SDS011;5922;53.734;10.258;2023-09-12T04:53:49;29.43;;;24.00;;
11731;SDS011;5922;53.734;10.258;2023-09-12T04:56:19;29.03;;;24.70;;
11731;SDS011;5922;53.734;10.258;2023-09-12T04:58:53;27.60;;;23.40;;
11731;SDS011;5922;53.734;10.258;2023-09-12T05:01:20;30.17;;;24.33;;
11731;SDS011;5922;53.734;10.258;2023-09-12T05:03:47;33.67;;;26.40;;
11731;SDS011;5922;53.734;10.258;2023-09-12T05:06:14;29.77;;;25.27;;
11731;SDS011;5922;53.734;10.258;2023-09-12T05:08:55;34.00;;;25.73;;
11731;SDS011;5922;53.734;10.258;2023-09-12T05:11:22;29.37;;;24.00;;
11731;SDS011;5922;53.734;10.258;2023-09-12T05:13:49;35.47;;;25.60;;
11731;SDS011;5922;53.734;10.258;2023-09-12T05:16:30;30.43;;;24.67;;
11731;SDS011;5922;53.734;10.258;2023-09-12T05:18:57;32.83;;;24.67;;
11731;SDS011;5922;53.734;10.258;2023-09-12T05:21:25;31.10;;;25.50;;
11731;SDS011;5922;53.734;10.258;2023-09-12T05:23:56;35.50;;;25.37;;
11731;SDS011;5922;53.734;10.258;2023-09-12T05:26:23;29.77;;;25.23;;
11731;SDS011;5922;53.734;10.258;2023-09-12T05:28:50;35.30;;;25.67;;
11731;SDS011;5922;53.734;10.258;2023-09-12T05:31:28;31.40;;;25.83;;
11731;SDS011;5922;53.734;10.258;2023-09-12T05:34:47;31.40;;;25.97;;
11731;SDS011;5922;53.734;10.258;2023-09-12T05:38:10;31.73;;;24.17;;
11731;SDS011;5922;53.734;10.258;2023-09-12T05:43:36;36.13;;;26.63;;
11731;SDS011;5922;53.734;10.258;2023-09-12T05:46:20;34.23;;;26.47;;
11731;SDS011;5922;53.734;10.258;2023-09-12T05:48:56;33.67;;;26.87;;
11731;SDS011;5922;53.734;10.258;2023-09-12T05:51:26;32.70;;;26.50;;
11731;SDS011;5922;53.734;10.258;2023-09-12T05:53:55;35.10;;;27.70;;
11731;SDS011;5922;53.734;10.258;2023-09-12T05:56:26;31.70;;;26.27;;
11731;SDS011;5922;53.734;10.258;2023-09-12T05:58:57;33.40;;;28.27;;
11731;SDS011;5922;53.734;10.258;2023-09-12T06:01:27;37.57;;;27.03;;
11731;SDS011;5922;53.734;10.258;2023-09-12T06:03:55;37.23;;;27.90;;
11731;SDS011;5922;53.734;10.258;2023-09-12T06:06:27;34.47;;;28.33;;
11731;SDS011;5922;53.734;10.258;2023-09-12T06:08:55;35.60;;;27.43;;
11731;SDS011;5922;53.734;10.258;2023-09-12T06:11:23;34.67;;;27.03;;
11731;SDS011;5922;53.734;10.258;2023-09-12T06:13:52;39.80;;;29.17;;
11731;SDS011;5922;53.734;10.258;2023-09-12T06:16:21;45.63;;;29.80;;
11731;SDS011;5922;53.734;10.258;2023-09-12T06:18:49;34.83;;;28.23;;
11731;SDS011;5922;53.734;10.258;2023-09-12T06:21:18;40.90;;;29.50;;
11731;SDS011;5922;53.734;10.258;2023-09-12T06:23:48;38.97;;;30.70;;
11731;SDS011;5922;53.734;10.258;2023-09-12T06:26:15;39.30;;;29.57;;
11731;SDS011;5922;53.734;10.258;2023-09-12T06:28:42;36.63;;;29.63;;
11731;SDS011;5922;53.734;10.258;2023-09-12T06:31:09;38.03;;;29.83;;
11731;SDS011;5922;53.734;10.258;2023-09-12T06:33:38;39.87;;;29.97;;
11731;SDS011;5922;53.734;10.258;2023-09-12T06:36:05;42.20;;;29.87;;
11731;SDS011;5922;53.734;10.258;2023-09-12T06:38:33;39.20;;;31.57;;
11731;SDS011;5922;53.734;10.258;2023-09-12T06:41:00;37.80;;;29.70;;
11731;SDS011;5922;53.734;10.258;2023-09-12T06:43:29;35.70;;;28.70;;
11731;SDS011;5922;53.734;10.258;2023-09-12T06:45:59;41.70;;;30.87;;
11731;SDS011;5922;53.734;10.258;2023-09-12T06:48:26;41.77;;;30.73;;
11731;SDS011;5922;53.734;10.258;2023-09-12T06:50:57;38.60;;;30.57;;
11731;SDS011;5922;53.734;10.258;2023-09-12T06:53:24;43.50;;;30.83;;
11731;SDS011;5922;53.734;10.258;2023-09-12T06:55:53;43.80;;;33.10;;
11731;SDS011;5922;53.734;10.258;2023-09-12T06:58:24;43.77;;;32.03;;
11731;SDS011;5922;53.734;10.258;2023-09-12T07:00:51;39.13;;;32.13;;
11731;SDS011;5922;53.734;10.258;2023-09-12T07:03:20;46.27;;;33.03;;
11731;SDS011;5922;53.734;10.258;2023-09-12T07:05:48;40.97;;;32.67;;
11731;SDS011;5922;53.734;10.258;2023-09-12T07:08:17;43.00;;;31.93;;
11731;SDS011;5922;53.734;10.258;2023-09-12T07:10:44;46.13;;;32.90;;
11731;SDS011;5922;53.734;10.258;2023-09-12T07:13:10;43.77;;;32.47;;
11731;SDS011;5922;53.734;10.258;2023-09-12T07:15:38;41.10;;;32.70;;
11731;SDS011;5922;53.734;10.258;2023-09-12T07:18:05;42.77;;;32.03;;
11731;SDS011;5922;53.734;10.258;2023-09-12T07:20:33;45.20;;;33.23;;
11731;SDS011;5922;53.734;10.258;2023-09-12T07:23:00;39.30;;;32.07;;
11731;SDS011;5922;53.734;10.258;2023-09-12T07:25:29;42.63;;;32.33;;
11731;SDS011;5922;53.734;10.258;2023-09-12T07:27:56;44.70;;;32.83;;
11731;SDS011;5922;53.734;10.258;2023-09-12T07:30:23;40.90;;;31.13;;
11731;SDS011;5922;53.734;10.258;2023-09-12T07:32:50;41.90;;;31.10;;
11731;SDS011;5922;53.734;10.258;2023-09-12T07:38:09;41.43;;;31.47;;
11731;SDS011;5922;53.734;10.258;2023-09-12T07:40:40;39.23;;;31.10;;
11731;SDS011;5922;53.734;10.258;2023-09-12T07:43:18;41.63;;;31.70;;
11731;SDS011;5922;53.734;10.258;2023-09-12T07:45:54;45.43;;;32.17;;
11731;SDS011;5922;53.734;10.258;2023-09-12T07:48:22;38.40;;;30.90;;
11731;SDS011;5922;53.734;10.258;2023-09-12T07:50:49;39.57;;;30.77;;
11731;SDS011;5922;53.734;10.258;2023-09-12T07:53:17;41.67;;;30.90;;
11731;SDS011;5922;53.734;10.258;2023-09-12T07:55:45;42.63;;;31.80;;
11731;SDS011;5922;53.734;10.258;2023-09-12T07:58:13;40.30;;;31.13;;
11731;SDS011;5922;53.734;10.258;2023-09-12T08:00:40;41.93;;;31.67;;
11731;SDS011;5922;53.734;10.258;2023-09-12T08:03:07;38.73;;;30.33;;
11731;SDS011;5922;53.734;10.258;2023-09-12T08:05:35;43.47;;;32.87;;
11731;SDS011;5922;53.734;10.258;2023-09-12T08:08:03;39.70;;;30.53;;
11731;SDS011;5922;53.734;10.258;2023-09-12T08:10:30;38.97;;;30.13;;
11731;SDS011;5922;53.734;10.258;2023-09-12T08:13:03;40.90;;;31.53;;
11731;SDS011;5922;53.734;10.258;2023-09-12T08:15:31;40.87;;;30.30;;
11731;SDS011;5922;53.734;10.258;2023-09-12T08:18:02;44.83;;;31.47;;
11731;SDS011;5922;53.734;10.258;2023-09-12T08:20:30;39.37;;;31.47;;
11731;SDS011;5922;53.734;10.258;2023-09-12T08:22:57;42.50;;;30.80;;
11731;SDS011;5922;53.734;10.258;2023-09-12T08:25:29;43.43;;;31.13;;
11731;SDS011;5922;53.734;10.258;2023-09-12T08:27:59;39.77;;;30.37;;
11731;SDS011;5922;53.734;10.258;2023-09-12T08:30:30;39.10;;;31.10;;
11731;SDS011;5922;53.734;10.258;2023-09-12T08:32:58;41.87;;;30.83;;
11731;SDS011;5922;53.734;10.258;2023-09-12T08:35:32;40.70;;;30.70;;
11731;SDS011;5922;53.734;10.258;2023-09-12T08:37:59;42.77;;;32.00;;
11731;SDS011;5922;53.734;10.258;2023-09-12T08:40:26;40.63;;;30.13;;
11731;SDS011;5922;53.734;10.258;2023-09-12T08:42:54;37.37;;;28.87;;
11731;SDS011;5922;53.734;10.258;2023-09-12T08:45:24;37.30;;;27.40;;
11731;SDS011;5922;53.734;10.258;2023-09-12T08:48:01;32.63;;;27.17;;
11731;SDS011;5922;53.734;10.258;2023-09-12T08:50:30;32.60;;;27.73;;
11731;SDS011;5922;53.734;10.258;2023-09-12T08:53:03;33.87;;;28.03;;
11731;SDS011;5922;53.734;10.258;2023-09-12T08:55:51;33.27;;;25.83;;
11731;SDS011;5922;53.734;10.258;2023-09-12T08:58:21;31.70;;;25.30;;
11731;SDS011;5922;53.734;10.258;2023-09-12T09:01:01;32.40;;;24.80;;
11731;SDS011;5922;53.734;10.258;2023-09-12T09:03:46;30.93;;;25.73;;
11731;SDS011;5922;53.734;10.258;2023-09-12T09:06:13;31.33;;;25.23;;
11731;SDS011;5922;53.734;10.258;2023-09-12T09:08:41;29.83;;;25.87;;
11731;SDS011;5922;53.734;10.258;2023-09-12T09:11:09;31.03;;;24.97;;
11731;SDS011;5922;53.734;10.258;2023-09-12T09:13:37;31.13;;;24.57;;
11731;SDS011;5922;53.734;10.258;2023-09-12T09:16:10;30.97;;;24.23;;
11731;SDS011;5922;53.734;10.258;2023-09-12T09:18:52;26.43;;;22.53;;
11731;SDS011;5922;53.734;10.258;2023-09-12T09:21:20;25.03;;;22.27;;
11731;SDS011;5922;53.734;10.258;2023-09-12T09:23:49;24.87;;;21.10;;
11731;SDS011;5922;53.734;10.258;2023-09-12T09:26:17;29.20;;;22.47;;
11731;SDS011;5922;53.734;10.258;2023-09-12T09:28:44;26.87;;;21.80;;
11731;SDS011;5922;53.734;10.258;2023-09-12T09:31:12;23.50;;;20.10;;
11731;SDS011;5922;53.734;10.258;2023-09-12T09:33:39;23.23;;;20.73;;
11731;SDS011;5922;53.734;10.258;2023-09-12T09:36:12;23.33;;;20.17;;
11731;SDS011;5922;53.734;10.258;2023-09-12T09:38:39;25.53;;;21.07;;
11731;SDS011;5922;53.734;10.258;2023-09-12T09:41:07;25.77;;;20.07;;
11731;SDS011;5922;53.734;10.258;2023-09-12T09:43:35;22.43;;;19.57;;
11731;SDS011;5922;53.734;10.258;2023-09-12T09:46:02;22.07;;;19.73;;
11731;SDS011;5922;53.734;10.258;2023-09-12T09:48:29;21.83;;;18.53;;
11731;SDS011;5922;53.734;10.258;2023-09-12T09:50:59;20.47;;;18.37;;
11731;SDS011;5922;53.734;10.258;2023-09-12T09:53:29;22.50;;;17.73;;
11731;SDS011;5922;53.734;10.258;2023-09-12T09:56:07;21.40;;;17.67;;
11731;SDS011;5922;53.734;10.258;2023-09-12T09:58:35;17.43;;;15.23;;
11731;SDS011;5922;53.734;10.258;2023-09-12T10:01:02;19.90;;;17.30;;
11731;SDS011;5922;53.734;10.258;2023-09-12T10:03:31;19.67;;;17.23;;
11731;SDS011;5922;53.734;10.258;2023-09-12T10:05:59;21.03;;;15.73;;
11731;SDS011;5922;53.734;10.258;2023-09-12T10:08:31;18.70;;;16.80;;
11731;SDS011;5922;53.734;10.258;2023-09-12T10:10:59;18.73;;;14.40;;
11731;SDS011;5922;53.734;10.258;2023-09-12T10:13:29;17.93;;;14.70;;
11731;SDS011;5922;53.734;10.258;2023-09-12T10:15:59;15.67;;;14.17;;
11731;SDS011;5922;53.734;10.258;2023-09-12T10:18:29;17.67;;;15.30;;
11731;SDS011;5922;53.734;10.258;2023-09-12T10:21:04;17.97;;;14.73;;
11731;SDS011;5922;53.734;10.258;2023-09-12T10:23:36;16.27;;;14.13;;
11731;SDS011;5922;53.734;10.258;2023-09-12T10:26:07;15.80;;;13.77;;
11731;SDS011;5922;53.734;10.258;2023-09-12T10:28:35;16.30;;;14.13;;
11731;SDS011;5922;53.734;10.258;2023-09-12T10:31:02;18.50;;;14.00;;
11731;SDS011;5922;53.734;10.258;2023-09-12T10:33:31;14.33;;;12.83;;
11731;SDS011;5922;53.734;10.258;2023-09-12T10:35:59;17.07;;;13.77;;
11731;SDS011;5922;53.734;10.258;2023-09-12T10:38:27;15.67;;;14.17;;
11731;SDS011;5922;53.734;10.258;2023-09-12T10:40:57;14.97;;;13.43;;
11731;SDS011;5922;53.734;10.258;2023-09-12T10:43:26;15.47;;;12.80;;
11731;SDS011;5922;53.734;10.258;2023-09-12T10:45:55;16.77;;;14.87;;
11731;SDS011;5922;53.734;10.258;2023-09-12T10:48:24;15.87;;;14.30;;
11731;SDS011;5922;53.734;10.258;2023-09-12T10:50:51;16.20;;;14.50;;
11731;SDS011;5922;53.734;10.258;2023-09-12T10:53:19;16.87;;;15.13;;
11731;SDS011;5922;53.734;10.258;2023-09-12T10:56:13;18.40;;;16.07;;
11731;SDS011;5922;53.734;10.258;2023-09-12T11:01:25;16.73;;;15.03;;
11731;SDS011;5922;53.734;10.258;2023-09-12T11:03:53;16.80;;;15.00;;
11731;SDS011;5922;53.734;10.258;2023-09-12T11:06:26;16.77;;;15.10;;
11731;SDS011;5922;53.734;10.258;2023-09-12T11:11:46;17.20;;;14.47;;
11731;SDS011;5922;53.734;10.258;2023-09-12T11:14:14;17.20;;;14.63;;
11731;SDS011;5922;53.734;10.258;2023-09-12T11:16:41;17.97;;;14.03;;
11731;SDS011;5922;53.734;10.258;2023-09-12T11:19:11;15.87;;;14.33;;
11731;SDS011;5922;53.734;10.258;2023-09-12T11:21:39;16.07;;;14.30;;
11731;SDS011;5922;53.734;10.258;2023-09-12T11:24:06;14.63;;;13.20;;
11731;SDS011;5922;53.734;10.258;2023-09-12T11:26:35;15.30;;;13.70;;
11731;SDS011;5922;53.734;10.258;2023-09-12T11:29:11;14.77;;;13.27;;
11731;SDS011;5922;53.734;10.258;2023-09-12T11:31:51;15.60;;;13.93;;
11731;SDS011;5922;53.734;10.258;2023-09-12T11:34:18;15.23;;;13.70;;
11731;SDS011;5922;53.734;10.258;2023-09-12T11:36:45;15.60;;;14.00;;
11731;SDS011;5922;53.734;10.258;2023-09-12T11:39:25;16.13;;;14.43;;
11731;SDS011;5922;53.734;10.258;2023-09-12T11:41:53;15.63;;;14.03;;
11731;SDS011;5922;53.734;10.258;2023-09-12T11:44:22;15.83;;;14.23;;
11731;SDS011;5922;53.734;10.258;2023-09-12T11:46:50;15.87;;;14.27;;
11731;SDS011;5922;53.734;10.258;2023-09-12T11:49:19;15.50;;;13.90;;
11731;SDS011;5922;53.734;10.258;2023-09-12T11:51:57;15.80;;;13.47;;
11731;SDS011;5922;53.734;10.258;2023-09-12T11:54:25;16.13;;;14.50;;
11731;SDS011;5922;53.734;10.258;2023-09-12T11:56:52;16.27;;;14.63;;
11731;SDS011;5922;53.734;10.258;2023-09-12T11:59:26;16.47;;;13.80;;
11731;SDS011;5922;53.734;10.258;2023-09-12T12:01:55;17.27;;;14.87;;
11731;SDS011;5922;53.734;10.258;2023-09-12T12:04:22;17.97;;;16.10;;
11731;SDS011;5922;53.734;10.258;2023-09-12T12:06:51;16.47;;;14.77;;
11731;SDS011;5922;53.734;10.258;2023-09-12T12:09:22;19.33;;;14.93;;
11731;SDS011;5922;53.734;10.258;2023-09-12T12:11:52;16.13;;;14.53;;
11731;SDS011;5922;53.734;10.258;2023-09-12T12:20:44;16.80;;;14.73;;
11731;SDS011;5922;53.734;10.258;2023-09-12T12:23:32;18.70;;;15.77;;
11731;SDS011;5922;53.734;10.258;2023-09-12T12:44:15;20.67;;;15.67;;
11731;SDS011;5922;53.734;10.258;2023-09-12T12:47:26;19.43;;;16.93;;
11731;SDS011;5922;53.734;10.258;2023-09-12T12:50:00;19.23;;;17.17;;
11731;SDS011;5922;53.734;10.258;2023-09-12T12:52:29;19.47;;;17.57;;
11731;SDS011;5922;53.734;10.258;2023-09-12T12:55:14;20.47;;;17.33;;
11731;SDS011;5922;53.734;10.258;2023-09-12T12:57:49;18.97;;;17.07;;
11731;SDS011;5922;53.734;10.258;2023-09-12T13:00:46;21.10;;;18.90;;
11731;SDS011;5922;53.734;10.258;2023-09-12T13:09:29;20.60;;;17.47;;
11731;SDS011;5922;53.734;10.258;2023-09-12T13:15:19;19.17;;;17.23;;
11731;SDS011;5922;53.734;10.258;2023-09-12T13:18:17;20.40;;;18.37;;
11731;SDS011;5922;53.734;10.258;2023-09-12T13:21:03;19.33;;;17.33;;
11731;SDS011;5922;53.734;10.258;2023-09-12T13:23:47;19.67;;;16.90;;
11731;SDS011;5922;53.734;10.258;2023-09-12T13:26:26;20.10;;;17.97;;
11731;SDS011;5922;53.734;10.258;2023-09-12T13:28:58;19.77;;;17.67;;
11731;SDS011;5922;53.734;10.258;2023-09-12T14:24:24;26.00;;;21.20;;
11731;SDS011;5922;53.734;10.258;2023-09-12T14:30:07;22.20;;;19.73;;
11731;SDS011;5922;53.734;10.258;2023-09-12T14:35:58;21.93;;;19.10;;
11731;SDS011;5922;53.734;10.258;2023-09-12T14:45:24;20.37;;;18.37;;
11731;SDS011;5922;53.734;10.258;2023-09-12T14:48:13;19.00;;;17.17;;
11731;SDS011;5922;53.734;10.258;2023-09-12T15:40:38;21.33;;;19.23;;
11731;SDS011;5922;53.734;10.258;2023-09-12T15:43:33;21.43;;;18.20;;
11731;SDS011;5922;53.734;10.258;2023-09-12T15:52:13;17.00;;;15.37;;
11731;SDS011;5922;53.734;10.258;2023-09-12T15:54:47;15.90;;;14.50;;
11731;SDS011;5922;53.734;10.258;2023-09-12T16:17:47;18.30;;;15.47;;
11731;SDS011;5922;53.734;10.258;2023-09-12T17:14:50;16.27;;;14.67;;
11731;SDS011;5922;53.734;10.258;2023-09-12T17:17:17;16.17;;;13.73;;
11731;SDS011;5922;53.734;10.258;2023-09-12T17:19:48;15.27;;;13.77;;
11731;SDS011;5922;53.734;10.258;2023-09-12T17:22:32;15.17;;;13.63;;
11731;SDS011;5922;53.734;10.258;2023-09-12T17:53:45;15.73;;;14.07;;
11731;SDS011;5922;53.734;10.258;2023-09-12T17:56:12;17.17;;;15.57;;
11731;SDS011;5922;53.734;10.258;2023-09-12T17:58:40;17.60;;;15.83;;
11731;SDS011;5922;53.734;10.258;2023-09-12T18:01:08;17.97;;;16.17;;
11731;SDS011;5922;53.734;10.258;2023-09-12T18:03:37;17.33;;;15.63;;
11731;SDS011;5922;53.734;10.258;2023-09-12T18:06:04;18.00;;;15.90;;
11731;SDS011;5922;53.734;10.258;2023-09-12T18:08:44;17.57;;;15.80;;
11731;SDS011;5922;53.734;10.258;2023-09-12T18:11:11;15.97;;;14.37;;
11731;SDS011;5922;53.734;10.258;2023-09-12T18:13:44;15.93;;;14.43;;
11731;SDS011;5922;53.734;10.258;2023-09-12T18:16:21;16.80;;;15.10;;
11731;SDS011;5922;53.734;10.258;2023-09-12T18:18:49;16.07;;;14.33;;
11731;SDS011;5922;53.734;10.258;2023-09-12T18:21:16;16.43;;;14.73;;
11731;SDS011;5922;53.734;10.258;2023-09-12T18:23:45;16.90;;;15.23;;
11731;SDS011;5922;53.734;10.258;2023-09-12T18:26:12;16.67;;;14.97;;
11731;SDS011;5922;53.734;10.258;2023-09-12T18:28:46;18.27;;;15.97;;
11731;SDS011;5922;53.734;10.258;2023-09-12T18:31:17;16.70;;;15.10;;
11731;SDS011;5922;53.734;10.258;2023-09-12T18:33:44;15.87;;;14.37;;
11731;SDS011;5922;53.734;10.258;2023-09-12T18:36:13;16.17;;;14.50;;
11731;SDS011;5922;53.734;10.258;2023-09-12T18:38:46;16.87;;;15.17;;
11731;SDS011;5922;53.734;10.258;2023-09-12T18:41:15;17.63;;;15.53;;
11731;SDS011;5922;53.734;10.258;2023-09-12T18:43:55;16.80;;;15.10;;
11731;SDS011;5922;53.734;10.258;2023-09-12T18:46:23;16.97;;;14.40;;
11731;SDS011;5922;53.734;10.258;2023-09-12T18:48:50;16.87;;;15.10;;
11731;SDS011;5922;53.734;10.258;2023-09-12T18:51:20;16.80;;;14.97;;
11731;SDS011;5922;53.734;10.258;2023-09-12T18:53:49;17.33;;;14.80;;
11731;SDS011;5922;53.734;10.258;2023-09-12T18:56:16;16.23;;;14.53;;
11731;SDS011;5922;53.734;10.258;2023-09-12T18:58:48;21.03;;;16.73;;
11731;SDS011;5922;53.734;10.258;2023-09-12T19:01:15;18.53;;;16.67;;
11731;SDS011;5922;53.734;10.258;2023-09-12T19:03:42;16.90;;;15.20;;
11731;SDS011;5922;53.734;10.258;2023-09-12T19:06:10;17.07;;;15.37;;
11731;SDS011;5922;53.734;10.258;2023-09-12T19:08:37;16.23;;;14.73;;
11731;SDS011;5922;53.734;10.258;2023-09-12T19:11:07;20.70;;;14.83;;